createdAt,value
2019-03-03T00:00:42.662Z,48.40
2019-03-03T00:03:13.615Z,50.50
2019-03-03T00:05:44.788Z,81.07
2019-03-03T00:08:15.999Z,58.40
2019-03-03T00:10:47.427Z,61.27
2019-03-03T00:13:18.038Z,48.70
2019-03-03T00:15:49.190Z,48.77
2019-03-03T00:18:20.074Z,51.23
2019-03-03T00:20:52.406Z,61.20
2019-03-03T00:23:23.768Z,59.43
2019-03-03T00:25:55.500Z,59.07
2019-03-03T00:28:26.799Z,57.33
2019-03-03T00:30:57.959Z,60.57
2019-03-03T00:33:29.028Z,49.37
2019-03-03T00:36:00.186Z,57.20
2019-03-03T00:38:32.632Z,53.83
2019-03-03T00:41:04.954Z,46.17
2019-03-03T00:43:37.850Z,50.63
2019-03-03T00:46:10.709Z,52.30
2019-03-03T00:48:43.498Z,50.37
2019-03-03T00:51:15.934Z,45.10
2019-03-03T00:53:46.417Z,52.57
2019-03-03T00:56:18.897Z,47.83
2019-03-03T00:58:51.154Z,49.57
2019-03-03T01:01:23.820Z,48.17
2019-03-03T01:03:57.331Z,48.60
2019-03-03T01:06:29.719Z,54.47
2019-03-03T01:09:02.113Z,48.53
2019-03-03T01:11:36.616Z,63.37
2019-03-03T01:14:09.030Z,86.70
2019-03-03T01:16:41.447Z,59.47
2019-03-03T01:19:14.156Z,83.97
2019-03-03T01:21:47.145Z,157.17
2019-03-03T01:24:19.552Z,172.03
2019-03-03T01:26:51.194Z,117.77
2019-03-03T01:29:22.020Z,66.57
2019-03-03T01:31:53.908Z,84.47
2019-03-03T01:34:25.068Z,85.83
2019-03-03T01:36:56.369Z,61.00
2019-03-03T01:39:27.172Z,70.93
2019-03-03T01:41:58.166Z,69.70
2019-03-03T01:44:29.233Z,61.23
2019-03-03T01:47:00.032Z,59.60
2019-03-03T01:49:30.898Z,56.70
2019-03-03T01:52:02.137Z,56.17
2019-03-03T01:54:32.897Z,52.17
2019-03-03T01:57:03.737Z,50.53
2019-03-03T01:59:36.194Z,46.97
2019-03-03T02:02:07.194Z,47.00
2019-03-03T02:04:38.362Z,55.23
2019-03-03T02:07:10.518Z,52.40
2019-03-03T02:09:41.839Z,48.50
2019-03-03T02:12:13.740Z,51.70
2019-03-03T02:14:47.283Z,50.47
2019-03-03T02:17:18.297Z,45.50
2019-03-03T02:19:49.734Z,52.30
2019-03-03T02:22:20.745Z,45.43
2019-03-03T02:24:51.853Z,45.50
2019-03-03T02:27:23.215Z,52.20
2019-03-03T02:29:55.965Z,49.03
2019-03-03T02:32:27.168Z,53.27
2019-03-03T02:34:58.809Z,56.73
2019-03-03T02:37:30.111Z,68.47
2019-03-03T02:40:00.990Z,62.20
2019-03-03T02:42:32.158Z,54.27
2019-03-03T02:45:03.186Z,63.23
2019-03-03T02:47:34.267Z,61.67
2019-03-03T02:50:08.562Z,53.80
2019-03-03T02:52:39.575Z,56.80
2019-03-03T02:55:13.117Z,52.97
2019-03-03T02:57:44.446Z,58.73
2019-03-03T03:00:18.606Z,61.87
2019-03-03T03:02:50.706Z,61.30
2019-03-03T03:05:26.108Z,57.80
2019-03-03T03:07:58.927Z,61.60
2019-03-03T03:10:31.305Z,63.73
2019-03-03T03:13:05.446Z,61.93
2019-03-03T03:15:40.542Z,66.77
2019-03-03T03:18:12.972Z,68.20
2019-03-03T03:20:45.544Z,60.70
2019-03-03T03:23:17.981Z,64.13
2019-03-03T03:25:50.232Z,61.37
2019-03-03T03:28:21.095Z,72.03
2019-03-03T03:30:53.529Z,63.90
2019-03-03T03:33:25.930Z,62.53
2019-03-03T03:35:58.253Z,61.90
2019-03-03T03:38:30.366Z,61.33
2019-03-03T03:41:03.003Z,63.87
2019-03-03T03:43:35.487Z,56.87
2019-03-03T03:46:07.576Z,58.40
2019-03-03T03:48:40.241Z,56.20
2019-03-03T03:51:12.910Z,54.23
2019-03-03T03:53:45.405Z,60.73
2019-03-03T03:56:17.794Z,51.80
2019-03-03T03:58:50.372Z,54.60
2019-03-03T04:01:22.827Z,59.40
2019-03-03T04:03:55.402Z,55.93
2019-03-03T04:06:26.280Z,60.37
2019-03-03T04:09:01.727Z,60.40
2019-03-03T04:11:35.062Z,67.23
2019-03-03T04:14:07.791Z,63.17
2019-03-03T04:16:40.321Z,64.13
2019-03-03T04:19:12.637Z,62.20
2019-03-03T04:21:44.774Z,63.97
2019-03-03T04:24:17.116Z,62.87
2019-03-03T04:26:49.520Z,63.90
2019-03-03T04:29:21.699Z,64.90
2019-03-03T04:31:54.207Z,69.30
2019-03-03T04:34:26.554Z,62.60
2019-03-03T04:37:00.487Z,70.87
2019-03-03T04:39:32.863Z,65.17
2019-03-03T04:42:05.495Z,65.13
2019-03-03T04:44:37.700Z,63.53
2019-03-03T04:47:10.100Z,77.80
2019-03-03T04:49:42.731Z,76.43
2019-03-03T04:52:13.430Z,70.70
2019-03-03T04:54:45.891Z,74.30
2019-03-03T04:57:18.630Z,101.53
2019-03-03T04:59:51.000Z,118.83
2019-03-03T05:02:23.560Z,113.40
2019-03-03T05:04:56.494Z,107.93
2019-03-03T05:07:29.100Z,128.57
2019-03-03T05:10:01.699Z,141.13
2019-03-03T05:12:34.320Z,170.67
2019-03-03T05:15:11.779Z,135.83
2019-03-03T05:17:44.524Z,150.90
2019-03-03T05:20:16.548Z,106.57
2019-03-03T05:22:47.409Z,81.53
2019-03-03T05:25:18.300Z,52.53
2019-03-03T05:27:49.325Z,67.80
2019-03-03T05:30:20.696Z,72.60
2019-03-03T05:32:51.681Z,66.53
2019-03-03T05:35:22.959Z,81.97
2019-03-03T05:37:53.752Z,153.40
2019-03-03T05:40:25.080Z,172.17
2019-03-03T05:42:56.343Z,100.33
2019-03-03T05:45:27.303Z,94.60
2019-03-03T05:47:58.009Z,113.33
2019-03-03T05:50:30.445Z,91.00
2019-03-03T05:53:01.717Z,55.67
2019-03-03T05:55:32.995Z,96.80
2019-03-03T05:58:04.070Z,57.70
2019-03-03T06:00:34.912Z,48.63
2019-03-03T06:03:05.662Z,48.80
2019-03-03T06:05:36.344Z,55.30
2019-03-03T06:08:07.324Z,50.13
2019-03-03T06:10:37.970Z,48.20
2019-03-03T06:13:08.882Z,47.40
2019-03-03T06:15:40.681Z,42.93
2019-03-03T06:18:11.658Z,45.93
2019-03-03T06:20:42.321Z,44.77
2019-03-03T06:23:13.608Z,41.13
2019-03-03T06:25:44.480Z,42.87
2019-03-03T06:28:15.618Z,43.47
2019-03-03T06:30:46.863Z,51.57
2019-03-03T06:33:17.951Z,67.80
2019-03-03T06:35:49.155Z,66.90
2019-03-03T06:38:20.787Z,59.17
2019-03-03T06:40:52.061Z,54.90
2019-03-03T06:43:23.199Z,60.00
2019-03-03T06:45:54.559Z,47.20
2019-03-03T06:48:25.282Z,53.87
2019-03-03T06:50:56.258Z,69.77
2019-03-03T06:53:28.089Z,147.70
2019-03-03T06:55:59.517Z,187.70
2019-03-03T06:58:31.061Z,62.63
2019-03-03T07:01:01.876Z,59.87
2019-03-03T07:03:32.892Z,80.73
2019-03-03T07:06:04.360Z,53.27
2019-03-03T07:08:35.292Z,70.80
2019-03-03T07:11:06.822Z,53.23
2019-03-03T07:13:37.826Z,39.07
2019-03-03T07:16:08.965Z,55.43
2019-03-03T07:18:39.920Z,38.27
2019-03-03T07:21:11.029Z,46.67
2019-03-03T07:23:42.088Z,44.93
2019-03-03T07:26:12.999Z,40.40
2019-03-03T07:28:44.006Z,39.50
2019-03-03T07:31:14.958Z,47.50
2019-03-03T07:33:47.046Z,39.27
2019-03-03T07:36:17.777Z,40.90
2019-03-03T07:38:49.400Z,41.00
2019-03-03T07:41:20.403Z,40.57
2019-03-03T07:43:50.961Z,48.23
2019-03-03T07:46:21.406Z,40.80
2019-03-03T07:48:52.174Z,37.30
2019-03-03T07:51:22.725Z,39.10
2019-03-03T07:53:53.577Z,38.63
2019-03-03T07:56:24.029Z,56.37
2019-03-03T07:58:54.643Z,42.83
2019-03-03T08:01:25.141Z,37.90
2019-03-03T08:03:56.026Z,37.63
2019-03-03T08:06:26.839Z,40.80
2019-03-03T08:08:57.385Z,32.17
2019-03-03T08:11:28.153Z,35.80
2019-03-03T08:13:58.722Z,40.87
2019-03-03T08:16:29.235Z,36.73
2019-03-03T08:19:00.212Z,36.17
2019-03-03T08:21:30.821Z,42.93
2019-03-03T08:24:01.365Z,66.90
2019-03-03T08:26:31.952Z,40.77
2019-03-03T08:29:02.623Z,34.93
2019-03-03T08:31:33.582Z,37.40
2019-03-03T08:34:04.167Z,37.37
2019-03-03T08:36:35.054Z,32.63
2019-03-03T08:39:06.529Z,42.47
2019-03-03T08:41:39.483Z,27.57
2019-03-03T08:44:11.690Z,28.53
2019-03-03T08:46:44.058Z,50.07
2019-03-03T08:49:16.496Z,21.43
2019-03-03T08:51:49.684Z,23.87
2019-03-03T08:54:21.843Z,26.23
2019-03-03T08:56:54.087Z,26.43
2019-03-03T08:59:24.294Z,23.53
2019-03-03T09:01:57.081Z,27.07
2019-03-03T09:04:29.131Z,20.17
2019-03-03T09:07:01.435Z,22.33
2019-03-03T09:09:36.297Z,20.63
2019-03-03T09:12:09.874Z,24.87
2019-03-03T09:14:42.124Z,24.27
2019-03-03T09:17:14.426Z,19.32
2019-03-03T09:19:46.570Z,19.17
2019-03-03T09:22:18.906Z,20.40
2019-03-03T09:24:51.178Z,21.27
2019-03-03T09:27:23.441Z,22.40
2019-03-03T09:29:55.566Z,21.77
2019-03-03T09:32:27.761Z,15.87
2019-03-03T09:34:59.921Z,19.77
2019-03-03T09:37:32.129Z,18.87
2019-03-03T09:40:09.420Z,21.02
2019-03-03T09:42:38.242Z,18.57
2019-03-03T09:45:10.853Z,18.45
2019-03-03T09:47:43.024Z,19.17
2019-03-03T09:50:15.325Z,15.70
2019-03-03T09:52:47.594Z,15.83
2019-03-03T09:55:20.007Z,16.65
2019-03-03T09:57:52.202Z,16.93
2019-03-03T10:00:25.306Z,17.80
2019-03-03T10:03:05.209Z,13.95
2019-03-03T10:05:47.969Z,16.85
2019-03-03T10:08:20.123Z,13.70
2019-03-03T10:10:52.234Z,12.03
2019-03-03T10:13:24.402Z,17.20
2019-03-03T10:16:01.802Z,16.02
2019-03-03T10:18:31.081Z,12.73
2019-03-03T10:21:03.396Z,10.95
2019-03-03T10:23:35.577Z,10.78
2019-03-03T10:26:07.921Z,23.38
2019-03-03T10:28:40.753Z,9.93
2019-03-03T10:31:12.965Z,15.83
2019-03-03T10:33:45.244Z,8.33
2019-03-03T10:36:21.279Z,13.25
2019-03-03T10:38:58.319Z,10.48
2019-03-03T10:41:33.521Z,12.28
2019-03-03T10:44:08.457Z,9.73
2019-03-03T10:46:40.753Z,7.87
2019-03-03T10:49:13.281Z,14.63
2019-03-03T10:51:45.762Z,12.45
2019-03-03T10:54:18.081Z,11.90
2019-03-03T10:56:50.240Z,6.90
2019-03-03T10:59:22.497Z,6.85
2019-03-03T11:01:54.682Z,7.65
2019-03-03T11:04:26.834Z,11.28
2019-03-03T11:07:00.921Z,9.03
2019-03-03T11:09:35.441Z,9.20
2019-03-03T11:12:07.490Z,12.85
2019-03-03T11:14:40.070Z,8.53
2019-03-03T11:17:12.561Z,11.53
2019-03-03T11:19:44.928Z,8.65
2019-03-03T11:22:15.404Z,7.28
2019-03-03T11:24:47.827Z,8.85
2019-03-03T11:27:20.098Z,11.60
2019-03-03T11:29:52.505Z,8.88
2019-03-03T11:32:24.697Z,9.60
2019-03-03T11:34:57.074Z,5.87
2019-03-03T11:37:29.548Z,6.70
2019-03-03T11:40:01.850Z,7.28
2019-03-03T11:42:34.684Z,9.05
2019-03-03T11:45:10.084Z,7.62
2019-03-03T11:47:42.317Z,6.60
2019-03-03T11:50:15.005Z,8.15
2019-03-03T11:52:47.248Z,7.53
2019-03-03T11:55:19.475Z,7.62
2019-03-03T11:57:51.613Z,7.97
2019-03-03T12:00:24.098Z,8.88
2019-03-03T12:02:56.700Z,7.15
2019-03-03T12:05:27.268Z,6.90
2019-03-03T12:07:59.413Z,8.58
2019-03-03T12:10:31.708Z,5.45
2019-03-03T12:13:03.988Z,8.05
2019-03-03T12:15:36.757Z,6.58
2019-03-03T12:18:09.308Z,9.73
2019-03-03T12:20:41.636Z,10.75
2019-03-03T12:23:18.268Z,6.87
2019-03-03T12:25:50.573Z,6.85
2019-03-03T12:28:23.652Z,5.35
2019-03-03T12:30:56.132Z,10.10
2019-03-03T12:33:28.605Z,5.62
2019-03-03T12:36:01.030Z,12.07
2019-03-03T12:38:33.149Z,7.75
2019-03-03T12:41:05.284Z,3.95
2019-03-03T12:43:37.468Z,11.22
2019-03-03T12:46:10.786Z,7.97
2019-03-03T12:48:43.236Z,6.62
2019-03-03T12:51:15.316Z,10.38
2019-03-03T12:53:47.440Z,6.55
2019-03-03T12:56:19.603Z,6.28
2019-03-03T12:58:49.950Z,9.43
2019-03-03T13:01:23.833Z,15.85
2019-03-03T13:03:56.203Z,11.60
2019-03-03T13:06:30.358Z,6.53
2019-03-03T13:09:02.150Z,6.80
2019-03-03T13:11:35.956Z,8.70
2019-03-03T13:14:06.307Z,9.95
2019-03-03T13:16:38.884Z,10.18
2019-03-03T13:26:18.947Z,11.50
2019-03-03T13:28:51.106Z,7.37
2019-03-03T13:31:23.324Z,8.10
2019-03-03T13:33:55.588Z,9.25
2019-03-03T13:36:27.851Z,5.75
2019-03-03T13:39:08.128Z,9.55
2019-03-03T13:41:43.255Z,8.90
2019-03-03T13:44:13.679Z,10.68
2019-03-03T13:46:44.310Z,9.78
2019-03-03T13:49:14.694Z,8.60
2019-03-03T13:51:45.409Z,7.20
2019-03-03T13:54:16.157Z,10.15
2019-03-03T13:56:46.620Z,7.08
2019-03-03T13:59:17.170Z,9.55
2019-03-03T14:01:47.587Z,10.90
2019-03-03T14:04:18.035Z,9.75
2019-03-03T14:06:48.546Z,11.03
2019-03-03T14:09:20.516Z,10.95
2019-03-03T14:11:50.978Z,12.05
2019-03-03T14:14:21.380Z,6.67
2019-03-03T14:16:51.851Z,8.70
2019-03-03T14:19:22.260Z,7.05
2019-03-03T14:21:52.983Z,5.95
2019-03-03T14:24:23.450Z,12.80
2019-03-03T14:26:54.028Z,9.60
2019-03-03T14:29:24.348Z,7.55
2019-03-03T14:31:54.814Z,5.80
2019-03-03T14:34:25.517Z,8.20
2019-03-03T14:36:55.929Z,10.80
2019-03-03T14:39:26.620Z,9.58
2019-03-03T14:41:57.009Z,13.00
2019-03-03T14:44:27.490Z,9.80
2019-03-03T14:46:58.023Z,10.40
2019-03-03T14:49:28.667Z,12.23
2019-03-03T14:51:59.210Z,10.65
2019-03-03T14:54:29.661Z,9.85
2019-03-03T14:57:00.550Z,8.53
2019-03-03T14:59:30.926Z,8.10
2019-03-03T15:02:01.376Z,8.68
2019-03-03T15:04:31.728Z,8.68
2019-03-03T15:07:08.491Z,10.23
2019-03-03T15:09:38.947Z,11.05
2019-03-03T15:12:09.581Z,8.88
2019-03-03T15:14:39.969Z,6.92
2019-03-03T15:17:10.409Z,13.30
2019-03-03T15:19:40.995Z,17.75
2019-03-03T15:22:11.493Z,9.58
2019-03-03T15:24:42.019Z,10.85
2019-03-03T15:27:12.758Z,13.25
2019-03-03T15:29:43.121Z,11.97
2019-03-03T15:32:13.623Z,12.70
2019-03-03T15:34:44.217Z,12.47
2019-03-03T15:37:16.108Z,12.73
2019-03-03T15:39:46.988Z,8.70
2019-03-03T15:42:17.778Z,10.23
2019-03-03T15:44:48.277Z,11.97
2019-03-03T15:47:18.740Z,11.83
2019-03-03T15:49:49.465Z,10.75
2019-03-03T15:52:21.988Z,9.30
2019-03-03T15:54:53.994Z,12.37
2019-03-03T15:57:25.600Z,17.23
2019-03-03T15:59:56.226Z,12.10
2019-03-03T16:02:26.886Z,12.45
2019-03-03T16:04:57.377Z,11.43
2019-03-03T16:07:34.263Z,15.08
2019-03-03T16:10:11.960Z,14.50
2019-03-03T16:12:42.529Z,14.93
2019-03-03T16:15:15.444Z,16.57
2019-03-03T16:17:45.869Z,14.00
2019-03-03T16:20:18.311Z,17.10
2019-03-03T16:22:49.049Z,11.40
2019-03-03T16:25:21.544Z,11.50
2019-03-03T16:27:58.089Z,13.03
2019-03-03T16:30:28.878Z,13.03
2019-03-03T16:33:03.074Z,13.18
2019-03-03T16:35:37.048Z,45.43
2019-03-03T16:38:07.421Z,13.62
2019-03-03T16:40:40.133Z,24.37
2019-03-03T16:43:11.719Z,112.00
2019-03-03T16:45:42.441Z,129.78
2019-03-03T16:48:12.970Z,86.12
2019-03-03T16:50:44.765Z,88.72
2019-03-03T16:53:22.079Z,174.68
2019-03-03T16:56:00.938Z,240.82
2019-03-03T16:58:35.597Z,131.22
2019-03-03T17:01:09.059Z,30.20
2019-03-03T17:03:39.530Z,28.70
2019-03-03T17:06:09.961Z,13.80
2019-03-03T17:08:40.480Z,14.13
2019-03-03T17:11:11.000Z,15.90
2019-03-03T17:13:42.902Z,17.25
2019-03-03T17:16:20.571Z,14.20
2019-03-03T17:18:53.210Z,14.55
2019-03-03T17:21:25.175Z,15.93
2019-03-03T17:23:55.754Z,21.48
2019-03-03T17:26:30.052Z,18.23
2019-03-03T17:29:00.586Z,11.43
2019-03-03T17:31:31.059Z,12.35
2019-03-03T17:34:01.749Z,30.48
2019-03-03T17:36:32.450Z,18.73
2019-03-03T17:39:03.580Z,17.32
2019-03-03T17:41:35.942Z,20.15
2019-03-03T17:44:09.783Z,20.10
2019-03-03T17:46:42.509Z,13.53
2019-03-03T17:49:13.995Z,12.47
2019-03-03T17:51:44.660Z,12.47
2019-03-03T17:54:15.881Z,13.78
2019-03-03T17:56:46.399Z,12.30
2019-03-03T17:59:17.175Z,11.15
2019-03-03T18:01:48.355Z,14.98
2019-03-03T18:04:18.888Z,15.93
2019-03-03T18:06:49.628Z,46.30
2019-03-03T18:09:21.327Z,16.30
2019-03-03T18:11:52.018Z,25.17
2019-03-03T18:14:22.616Z,29.63
2019-03-03T18:16:53.165Z,45.65
2019-03-03T18:19:24.916Z,13.33
2019-03-03T18:22:03.477Z,33.37
2019-03-03T18:24:47.364Z,11.97
2019-03-03T18:27:18.923Z,20.32
2019-03-03T18:30:03.242Z,13.72
2019-03-03T18:32:49.821Z,27.62
2019-03-03T18:35:27.999Z,33.80
2019-03-03T18:38:01.026Z,30.02
2019-03-03T18:40:34.227Z,45.30
2019-03-03T18:43:05.708Z,39.98
2019-03-03T18:45:37.566Z,30.62
2019-03-03T18:48:13.439Z,17.75
2019-03-03T18:50:55.914Z,12.78
2019-03-03T18:53:26.332Z,15.50
2019-03-03T18:56:01.686Z,15.88
2019-03-03T18:58:32.986Z,12.23
2019-03-03T19:01:06.216Z,16.27
2019-03-03T19:03:38.987Z,11.60
2019-03-03T19:06:11.490Z,12.90
2019-03-03T19:08:44.366Z,12.63
2019-03-03T19:11:19.015Z,15.80
2019-03-03T19:13:51.103Z,13.90
2019-03-03T19:16:28.086Z,10.63
2019-03-03T19:19:06.794Z,14.00
2019-03-03T19:21:40.340Z,17.65
2019-03-03T19:24:18.449Z,14.50
2019-03-03T19:26:49.928Z,11.25
2019-03-03T19:29:22.565Z,9.18
2019-03-03T19:31:55.527Z,12.03
2019-03-03T19:34:30.033Z,17.03
2019-03-03T19:37:00.666Z,14.05
2019-03-03T19:39:35.739Z,26.87
2019-03-03T19:42:08.843Z,39.93
2019-03-03T19:44:45.977Z,13.98
2019-03-03T19:47:42.927Z,23.75
2019-03-03T19:50:34.295Z,35.00
2019-03-03T19:53:22.260Z,23.47
2019-03-03T19:56:21.174Z,18.05
2019-03-03T19:59:09.617Z,15.90
2019-03-03T20:02:06.289Z,15.18
2019-03-03T20:05:19.587Z,19.67
2019-03-03T20:07:41.433Z,16.02
2019-03-03T20:10:18.464Z,17.75
2019-03-03T20:12:50.456Z,31.13
2019-03-03T20:15:43.220Z,16.35
2019-03-03T20:18:21.967Z,20.53
2019-03-03T20:20:53.668Z,13.23
2019-03-03T20:23:24.656Z,13.83
2019-03-03T20:25:56.471Z,14.18
2019-03-03T20:28:27.611Z,11.00
2019-03-03T20:30:59.878Z,10.78
2019-03-03T20:33:31.199Z,15.33
2019-03-03T20:36:02.467Z,14.15
2019-03-03T20:38:33.682Z,27.83
2019-03-03T20:41:05.105Z,9.15
2019-03-03T20:43:36.033Z,11.80
2019-03-03T20:46:20.144Z,33.83
2019-03-03T20:49:02.462Z,11.43
2019-03-03T20:51:40.430Z,9.90
2019-03-03T20:54:14.835Z,21.50
2019-03-03T20:56:47.353Z,12.13
2019-03-03T20:59:21.028Z,23.93
2019-03-03T21:01:53.072Z,17.42
2019-03-03T21:04:27.871Z,18.50
2019-03-03T21:06:59.871Z,13.77
2019-03-03T21:09:31.071Z,10.20
2019-03-03T21:12:07.632Z,12.33
2019-03-03T21:14:45.045Z,11.88
2019-03-03T21:17:29.029Z,15.53
2019-03-03T21:20:25.503Z,21.70
2019-03-03T21:23:04.429Z,31.52
2019-03-03T21:25:37.709Z,17.00
2019-03-03T21:28:09.257Z,17.85
2019-03-03T21:30:41.079Z,10.00
2019-03-03T21:33:14.016Z,14.70
2019-03-03T21:35:46.729Z,22.07
2019-03-03T21:38:17.836Z,29.23
2019-03-03T21:40:49.788Z,10.53
2019-03-03T21:43:21.060Z,12.58
2019-03-03T21:46:06.073Z,12.70
2019-03-03T21:48:43.477Z,16.80
2019-03-03T21:51:15.234Z,20.37
2019-03-03T21:53:46.898Z,12.73
2019-03-03T21:56:19.898Z,10.65
2019-03-03T21:58:52.435Z,27.62
2019-03-03T22:01:24.734Z,29.23
2019-03-03T22:03:56.155Z,13.95
2019-03-03T22:06:28.856Z,11.68
2019-03-03T22:09:00.919Z,58.75
2019-03-03T22:11:33.702Z,23.35
2019-03-03T22:14:05.734Z,15.70
2019-03-03T22:16:37.779Z,9.55
2019-03-03T22:19:09.324Z,20.92
2019-03-03T22:21:40.835Z,26.10
2019-03-03T22:24:12.940Z,13.53
2019-03-03T22:26:44.390Z,10.00
2019-03-03T22:29:16.455Z,10.32
2019-03-03T22:31:47.429Z,20.30
2019-03-03T22:34:18.797Z,14.73
2019-03-03T22:36:51.423Z,13.88
2019-03-03T22:39:23.670Z,20.17
2019-03-03T22:41:56.081Z,26.95
2019-03-03T22:44:29.720Z,14.93
2019-03-03T22:47:01.844Z,17.10
2019-03-03T22:49:34.559Z,24.30
2019-03-03T22:52:05.914Z,10.38
2019-03-03T22:54:37.357Z,20.02
2019-03-03T22:57:08.920Z,39.60
2019-03-03T22:59:40.366Z,18.30
2019-03-03T23:02:11.199Z,23.40
2019-03-03T23:04:45.759Z,14.38
2019-03-03T23:07:21.036Z,10.72
2019-03-03T23:09:56.264Z,11.57
2019-03-03T23:12:31.795Z,25.25
2019-03-03T23:15:06.155Z,14.53
2019-03-03T23:17:40.914Z,17.65
2019-03-03T23:20:13.714Z,35.95
2019-03-03T23:22:48.035Z,35.58
2019-03-03T23:25:22.754Z,8.33
2019-03-03T23:27:54.955Z,32.50
2019-03-03T23:30:26.955Z,50.48
2019-03-03T23:32:58.194Z,19.32
2019-03-03T23:35:29.755Z,22.07
2019-03-03T23:38:01.555Z,20.20
2019-03-03T23:40:33.113Z,12.50
2019-03-03T23:43:04.822Z,12.85
2019-03-03T23:45:36.551Z,9.38
2019-03-03T23:48:08.431Z,8.95
2019-03-03T23:50:40.950Z,9.18
2019-03-03T23:53:12.689Z,6.25
2019-03-03T23:55:44.532Z,7.47
2019-03-03T23:58:15.714Z,6.67
